createdAt,value
2018-07-04T00:02:14.228Z,101350.66
2018-07-04T00:04:52.706Z,101345.34
2018-07-04T00:07:31.201Z,101347.29
2018-07-04T00:10:09.640Z,101338.27
2018-07-04T00:12:48.146Z,101336.70
2018-07-04T00:15:26.591Z,101336.84
2018-07-04T00:18:05.265Z,101340.62
2018-07-04T00:20:43.728Z,101340.02
2018-07-04T00:23:22.207Z,101337.88
2018-07-04T00:26:00.897Z,101335.31
2018-07-04T00:28:39.452Z,101336.36
2018-07-04T00:31:18.081Z,101343.44
2018-07-04T00:33:56.635Z,101344.75
2018-07-04T00:36:35.300Z,101347.81
2018-07-04T00:39:13.845Z,101348.35
2018-07-04T00:41:52.378Z,101349.23
2018-07-04T00:44:30.857Z,101339.78
2018-07-04T00:47:09.509Z,101335.41
2018-07-04T00:49:47.928Z,101342.92
2018-07-04T00:52:26.535Z,101343.33
2018-07-04T00:55:05.173Z,101337.28
2018-07-04T00:57:43.776Z,101335.89
2018-07-04T01:00:22.317Z,101339.47
2018-07-04T01:03:00.810Z,101336.53
2018-07-04T01:05:39.349Z,101325.34
2018-07-04T01:08:17.953Z,101328.00
2018-07-04T01:10:56.549Z,101332.73
2018-07-04T01:13:35.069Z,101334.42
2018-07-04T01:16:13.699Z,101325.55
2018-07-04T01:18:52.479Z,101332.87
2018-07-04T01:21:31.050Z,101332.02
2018-07-04T01:24:09.708Z,101339.34
2018-07-04T01:26:48.212Z,101340.30
2018-07-04T01:29:26.636Z,101336.77
2018-07-04T01:32:05.465Z,101337.65
2018-07-04T01:34:44.014Z,101339.13
2018-07-04T01:37:22.500Z,101334.75
2018-07-04T01:40:01.013Z,101340.98
2018-07-04T01:42:39.515Z,101337.84
2018-07-04T01:45:18.096Z,101332.25
2018-07-04T01:47:56.728Z,101334.17
2018-07-04T01:50:35.183Z,101340.28
2018-07-04T01:53:13.792Z,101333.95
2018-07-04T01:55:52.426Z,101334.44
2018-07-04T01:58:31.049Z,101327.41
2018-07-04T02:01:09.649Z,101338.64
2018-07-04T02:03:48.140Z,101340.66
2018-07-04T02:06:26.657Z,101340.62
2018-07-04T02:09:05.264Z,101337.60
2018-07-04T02:11:43.768Z,101338.08
2018-07-04T02:14:22.264Z,101333.99
2018-07-04T02:17:00.644Z,101332.37
2018-07-04T02:19:39.086Z,101327.62
2018-07-04T02:22:17.607Z,101329.45
2018-07-04T02:24:56.228Z,101335.82
2018-07-04T02:27:34.645Z,101336.59
2018-07-04T02:30:13.144Z,101333.68
2018-07-04T02:32:51.652Z,101332.05
2018-07-04T02:35:30.361Z,101332.56
2018-07-04T02:38:08.916Z,101329.16
2018-07-04T02:40:47.452Z,101335.58
2018-07-04T02:43:26.071Z,101325.16
2018-07-04T02:46:04.589Z,101328.59
2018-07-04T02:48:43.149Z,101328.28
2018-07-04T02:51:21.656Z,101328.95
2018-07-04T02:54:00.309Z,101330.59
2018-07-04T02:56:38.728Z,101331.81
2018-07-04T02:59:17.152Z,101334.80
2018-07-04T03:01:55.640Z,101328.79
2018-07-04T03:04:34.289Z,101319.99
2018-07-04T03:07:12.829Z,101322.16
2018-07-04T03:09:51.348Z,101325.46
2018-07-04T03:12:29.864Z,101326.69
2018-07-04T03:15:08.377Z,101318.19
2018-07-04T03:17:46.902Z,101317.85
2018-07-04T03:20:25.301Z,101314.25
2018-07-04T03:23:03.735Z,101317.95
2018-07-04T03:25:42.248Z,101313.66
2018-07-04T03:28:20.673Z,101313.22
2018-07-04T03:30:59.166Z,101319.38
2018-07-04T03:33:37.912Z,101321.98
2018-07-04T03:36:16.716Z,101314.87
2018-07-04T03:38:55.510Z,101308.52
2018-07-04T03:41:34.077Z,101312.23
2018-07-04T03:44:12.595Z,101310.50
2018-07-04T03:46:51.116Z,101311.72
2018-07-04T03:49:29.859Z,101312.59
2018-07-04T03:52:08.473Z,101318.83
2018-07-04T03:54:47.107Z,101318.16
2018-07-04T03:57:25.605Z,101322.25
2018-07-04T04:00:03.988Z,101331.75
2018-07-04T04:02:42.393Z,101327.88
2018-07-04T04:05:21.212Z,101326.89
2018-07-04T04:07:59.653Z,101325.92
2018-07-04T04:10:38.152Z,101325.02
2018-07-04T04:13:16.583Z,101324.55
2018-07-04T04:15:55.121Z,101323.34
2018-07-04T04:18:33.644Z,101329.48
2018-07-04T04:21:12.224Z,101329.58
2018-07-04T04:23:50.788Z,101325.07
2018-07-04T04:26:29.322Z,101322.67
2018-07-04T04:29:07.984Z,101322.36
2018-07-04T04:31:46.541Z,101330.06
2018-07-04T04:34:25.257Z,101328.98
2018-07-04T04:37:03.932Z,101334.02
2018-07-04T04:39:42.288Z,101342.25
2018-07-04T04:42:20.906Z,101338.03
2018-07-04T04:44:59.442Z,101335.40
2018-07-04T04:47:38.014Z,101336.59
2018-07-04T04:50:16.465Z,101336.48
2018-07-04T04:52:55.063Z,101326.19
2018-07-04T04:55:33.516Z,101337.11
2018-07-04T04:58:12.177Z,101336.27
2018-07-04T05:00:50.836Z,101337.30
2018-07-04T05:03:29.601Z,101334.65
2018-07-04T05:06:07.996Z,101332.94
2018-07-04T05:08:46.604Z,101338.10
2018-07-04T05:11:25.101Z,101325.27
2018-07-04T05:14:03.758Z,101326.23
2018-07-04T05:16:42.217Z,101331.45
2018-07-04T05:19:20.696Z,101327.97
2018-07-04T05:21:59.220Z,101325.48
2018-07-04T05:24:37.716Z,101327.75
2018-07-04T05:27:16.113Z,101318.36
2018-07-04T05:29:54.672Z,101317.82
2018-07-04T05:32:33.339Z,101308.84
2018-07-04T05:35:11.807Z,101322.04
2018-07-04T05:37:50.335Z,101327.38
2018-07-04T05:40:28.909Z,101333.61
2018-07-04T05:43:07.580Z,101325.48
2018-07-04T05:45:46.064Z,101321.82
2018-07-04T05:48:24.587Z,101323.71
2018-07-04T05:51:03.127Z,101321.80
2018-07-04T05:53:41.712Z,101327.78
2018-07-04T05:56:20.246Z,101316.14
2018-07-04T05:58:58.739Z,101319.72
2018-07-04T06:01:37.296Z,101318.88
2018-07-04T06:04:15.930Z,101312.73
2018-07-04T06:06:54.538Z,101317.55
2018-07-04T06:09:33.117Z,101319.20
2018-07-04T06:12:11.668Z,101315.84
2018-07-04T06:14:50.397Z,101319.07
2018-07-04T06:17:29.096Z,101314.42
2018-07-04T06:20:08.172Z,101318.95
2018-07-04T06:22:46.600Z,101323.75
2018-07-04T06:25:25.224Z,101319.05
2018-07-04T06:28:03.788Z,101327.09
2018-07-04T06:30:42.316Z,101325.30
2018-07-04T06:33:20.837Z,101319.83
2018-07-04T06:35:59.257Z,101320.28
2018-07-04T06:38:25.264Z,101317.15
2018-07-04T06:40:51.305Z,101317.78
2018-07-04T06:43:17.331Z,101317.14
2018-07-04T06:45:43.401Z,101316.47
2018-07-04T06:48:09.436Z,101319.55
2018-07-04T06:50:35.483Z,101325.25
2018-07-04T06:53:01.516Z,101324.78
2018-07-04T06:55:27.541Z,101325.45
2018-07-04T06:57:53.586Z,101324.73
2018-07-04T07:00:19.608Z,101318.58
2018-07-04T07:02:45.641Z,101318.89
2018-07-04T07:05:24.301Z,101319.91
2018-07-04T07:08:02.741Z,101322.06
2018-07-04T07:10:41.164Z,101331.13
2018-07-04T07:13:19.689Z,101319.54
2018-07-04T07:15:58.304Z,101324.72
2018-07-04T07:18:36.817Z,101309.19
2018-07-04T07:21:15.246Z,101313.63
2018-07-04T07:23:53.864Z,101309.77
2018-07-04T07:26:32.405Z,101308.69
2018-07-04T07:29:10.871Z,101307.63
2018-07-04T07:31:49.435Z,101306.20
2018-07-04T07:34:28.065Z,101302.09
2018-07-04T07:37:06.545Z,101315.61
2018-07-04T07:39:44.992Z,101306.83
2018-07-04T07:42:23.468Z,101300.05
2018-07-04T07:45:02.030Z,101296.90
2018-07-04T07:47:40.445Z,101296.12
2018-07-04T07:50:18.954Z,101296.66
2018-07-04T07:52:57.516Z,101294.85
2018-07-04T07:55:36.273Z,101295.08
2018-07-04T07:58:14.935Z,101298.95
2018-07-04T08:00:53.539Z,101296.12
2018-07-04T08:03:31.984Z,101288.17
2018-07-04T08:06:11.476Z,101291.88
2018-07-04T08:08:50.098Z,101289.73
2018-07-04T08:11:28.708Z,101287.77
2018-07-04T08:14:07.301Z,101290.05
2018-07-04T08:16:45.884Z,101284.68
2018-07-04T08:19:24.418Z,101284.80
2018-07-04T08:22:03.072Z,101284.05
2018-07-04T08:24:41.598Z,101270.98
2018-07-04T08:27:20.249Z,101279.06
2018-07-04T08:29:58.707Z,101279.52
2018-07-04T08:32:37.179Z,101271.05
2018-07-04T08:35:15.680Z,101275.12
2018-07-04T08:37:54.156Z,101277.46
2018-07-04T08:40:32.860Z,101277.22
2018-07-04T08:43:11.596Z,101276.09
2018-07-04T08:45:50.649Z,101270.63
2018-07-04T08:48:29.295Z,101268.13
2018-07-04T08:51:07.880Z,101276.90
2018-07-04T08:53:46.428Z,101278.72
2018-07-04T08:56:24.900Z,101270.87
2018-07-04T08:59:03.428Z,101271.82
2018-07-04T09:01:41.840Z,101280.38
2018-07-04T09:04:20.481Z,101273.73
2018-07-04T09:06:59.049Z,101271.34
2018-07-04T09:09:37.789Z,101265.07
2018-07-04T09:12:16.420Z,101271.94
2018-07-04T09:14:54.941Z,101272.39
2018-07-04T09:17:33.564Z,101269.90
2018-07-04T09:20:12.092Z,101282.84
2018-07-04T09:22:50.808Z,101279.59
2018-07-04T09:25:29.352Z,101278.61
2018-07-04T09:28:07.941Z,101270.97
2018-07-04T09:30:46.317Z,101268.26
2018-07-04T09:33:24.888Z,101275.20
2018-07-04T09:36:03.428Z,101270.52
2018-07-04T09:38:42.007Z,101261.51
2018-07-04T09:41:20.512Z,101258.03
2018-07-04T09:43:59.021Z,101256.91
2018-07-04T09:46:37.556Z,101260.58
2018-07-04T09:49:16.081Z,101255.59
2018-07-04T09:51:54.554Z,101258.87
2018-07-04T09:54:33.156Z,101264.48
2018-07-04T09:57:11.736Z,101255.03
2018-07-04T09:59:50.189Z,101244.92
2018-07-04T10:02:28.775Z,101244.07
2018-07-04T10:05:07.556Z,101253.94
2018-07-04T10:07:46.233Z,101251.69
2018-07-04T10:10:24.813Z,101254.81
2018-07-04T10:13:03.253Z,101249.41
2018-07-04T10:15:41.759Z,101256.22
2018-07-04T10:18:20.392Z,101252.38
2018-07-04T10:20:59.032Z,101247.89
2018-07-04T10:23:37.529Z,101240.58
2018-07-04T10:26:16.005Z,101242.17
2018-07-04T10:28:54.545Z,101238.09
2018-07-04T10:31:32.948Z,101232.09
2018-07-04T10:34:11.547Z,101225.86
2018-07-04T10:36:50.049Z,101237.88
2018-07-04T10:39:28.552Z,101228.16
2018-07-04T10:42:07.091Z,101227.18
2018-07-04T10:44:45.559Z,101235.89
2018-07-04T10:47:23.990Z,101236.12
2018-07-04T10:50:02.386Z,101237.13
2018-07-04T10:52:40.885Z,101232.94
2018-07-04T10:55:19.465Z,101233.73
2018-07-04T10:57:57.812Z,101239.12
2018-07-04T11:00:36.357Z,101224.97
2018-07-04T11:03:14.904Z,101229.39
2018-07-04T11:05:53.945Z,101230.84
2018-07-04T11:08:32.444Z,101222.27
2018-07-04T11:11:11.121Z,101227.66
2018-07-04T11:13:49.825Z,101224.39
2018-07-04T11:16:28.286Z,101221.14
2018-07-04T11:19:06.805Z,101218.91
2018-07-04T11:21:45.286Z,101215.77
2018-07-04T11:24:23.861Z,101206.18
2018-07-04T11:27:02.408Z,101201.02
2018-07-04T11:29:40.781Z,101210.94
2018-07-04T11:32:19.408Z,101199.88
2018-07-04T11:34:57.937Z,101203.05
2018-07-04T11:37:36.446Z,101197.30
2018-07-04T11:40:14.981Z,101198.46
2018-07-04T11:42:53.717Z,101193.81
2018-07-04T11:45:32.265Z,101194.07
2018-07-04T11:47:58.319Z,101192.52
2018-07-04T11:50:24.343Z,101195.11
2018-07-04T11:52:50.369Z,101193.77
2018-07-04T11:55:16.411Z,101199.86
2018-07-04T11:57:42.433Z,101196.86
2018-07-04T12:00:08.464Z,101197.34
2018-07-04T12:02:34.485Z,101191.45
2018-07-04T12:05:13.134Z,101183.54
2018-07-04T12:07:39.145Z,101190.84
2018-07-04T12:10:05.174Z,101183.63
2018-07-04T12:12:31.188Z,101194.67
2018-07-04T12:14:57.224Z,101185.74
2018-07-04T12:17:23.251Z,101179.17
2018-07-04T12:19:49.280Z,101179.86
2018-07-04T12:22:15.303Z,101188.58
2018-07-04T12:24:41.329Z,101183.40
2018-07-04T12:27:07.342Z,101175.34
2018-07-04T12:29:33.372Z,101180.19
2018-07-04T12:31:59.428Z,101187.07
2018-07-04T12:34:25.455Z,101183.02
2018-07-04T12:36:51.477Z,101197.53
2018-07-04T12:39:17.500Z,101195.70
2018-07-04T12:41:43.532Z,101195.94
2018-07-04T12:44:09.563Z,101194.72
2018-07-04T12:46:35.603Z,101184.08
2018-07-04T12:49:02.704Z,101188.34
2018-07-04T12:51:30.284Z,101189.80
2018-07-04T12:55:01.786Z,101182.91
2018-07-04T12:57:40.382Z,101180.11
2018-07-04T13:00:18.872Z,101178.08
2018-07-04T13:02:57.356Z,101186.16
2018-07-04T13:05:35.804Z,101182.05
2018-07-04T13:08:14.320Z,101179.52
2018-07-04T13:10:52.910Z,101178.55
2018-07-04T13:13:31.541Z,101173.27
2018-07-04T13:16:09.922Z,101168.94
2018-07-04T13:18:48.571Z,101156.72
2018-07-04T13:21:27.208Z,101159.35
2018-07-04T13:24:05.757Z,101161.36
2018-07-04T13:26:44.285Z,101159.35
2018-07-04T13:29:22.916Z,101155.22
2018-07-04T13:32:01.468Z,101153.52
2018-07-04T13:34:39.977Z,101155.00
2018-07-04T13:37:18.525Z,101148.45
2018-07-04T13:39:57.033Z,101143.55
2018-07-04T13:42:35.542Z,101149.02
2018-07-04T13:45:13.928Z,101143.02
2018-07-04T13:47:52.496Z,101144.33
2018-07-04T13:50:31.013Z,101140.57
2018-07-04T13:53:09.504Z,101140.05
2018-07-04T13:55:47.917Z,101127.22
2018-07-04T13:58:26.448Z,101133.84
2018-07-04T14:01:04.926Z,101128.13
2018-07-04T14:03:43.644Z,101121.21
2018-07-04T14:06:23.173Z,101118.14
2018-07-04T14:09:01.668Z,101119.08
2018-07-04T14:11:40.249Z,101115.85
2018-07-04T14:14:18.947Z,101114.21
2018-07-04T14:16:57.740Z,101116.75
2018-07-04T14:19:36.264Z,101112.88
2018-07-04T14:22:14.932Z,101117.07
2018-07-04T14:24:53.371Z,101114.73
2018-07-04T14:27:31.837Z,101107.73
2018-07-04T14:30:10.315Z,101112.41
2018-07-04T14:32:49.073Z,101102.34
2018-07-04T14:35:27.516Z,101102.43
2018-07-04T14:38:06.005Z,101096.38
2018-07-04T14:40:44.599Z,101100.05
2018-07-04T14:43:23.117Z,101100.68
2018-07-04T14:46:01.629Z,101107.31
2018-07-04T14:48:40.269Z,101104.56
2018-07-04T14:51:18.956Z,101100.95
2018-07-04T14:53:57.621Z,101109.31
2018-07-04T14:56:36.212Z,101092.34
2018-07-04T14:59:14.711Z,101091.48
2018-07-04T15:01:53.269Z,101089.86
2018-07-04T15:04:31.937Z,101097.38
2018-07-04T15:07:10.492Z,101104.66
2018-07-04T15:09:49.096Z,101089.35
2018-07-04T15:12:27.745Z,101093.33
2018-07-04T15:15:06.160Z,101088.36
2018-07-04T15:17:44.708Z,101078.59
2018-07-04T15:20:23.442Z,101087.66
2018-07-04T15:23:01.878Z,101081.17
2018-07-04T15:25:40.380Z,101085.05
2018-07-04T15:28:19.079Z,101079.77
2018-07-04T15:30:57.775Z,101082.75
2018-07-04T15:33:36.357Z,101082.88
2018-07-04T15:36:14.905Z,101075.23
2018-07-04T15:38:53.873Z,101077.72
2018-07-04T15:41:32.454Z,101072.92
2018-07-04T15:44:11.060Z,101073.91
2018-07-04T15:46:49.686Z,101069.88
2018-07-04T15:49:28.264Z,101065.78
2018-07-04T15:52:06.800Z,101067.37
2018-07-04T15:54:45.294Z,101065.55
2018-07-04T15:57:23.814Z,101066.64
2018-07-04T16:00:02.415Z,101070.58
2018-07-04T16:02:41.048Z,101069.31
2018-07-04T16:05:19.544Z,101067.30
2018-07-04T16:07:58.101Z,101058.04
2018-07-04T16:10:36.560Z,101064.84
2018-07-04T16:13:15.084Z,101065.02
2018-07-04T16:15:53.621Z,101062.97
2018-07-04T16:18:32.148Z,101061.90
2018-07-04T16:21:10.649Z,101066.63
2018-07-04T16:23:49.089Z,101067.09
2018-07-04T16:26:27.468Z,101065.22
2018-07-04T16:29:06.051Z,101062.16
2018-07-04T16:31:44.549Z,101064.16
2018-07-04T16:34:23.137Z,101067.57
2018-07-04T16:37:01.560Z,101061.56
2018-07-04T16:39:40.199Z,101056.65
2018-07-04T16:42:18.703Z,101061.40
2018-07-04T16:44:57.852Z,101060.40
2018-07-04T16:47:36.345Z,101061.75
2018-07-04T16:50:14.941Z,101055.05
2018-07-04T16:52:53.484Z,101058.06
2018-07-04T16:55:31.972Z,101052.36
2018-07-04T16:58:10.417Z,101054.20
2018-07-04T17:00:48.930Z,101053.34
2018-07-04T17:03:27.464Z,101045.25
2018-07-04T17:06:06.800Z,101050.80
2018-07-04T17:08:45.276Z,101054.83
2018-07-04T17:11:23.949Z,101047.27
2018-07-04T17:14:02.456Z,101045.05
2018-07-04T17:16:40.861Z,101051.81
2018-07-04T17:19:19.385Z,101055.95
2018-07-04T17:21:58.032Z,101051.38
2018-07-04T17:24:36.649Z,101059.01
2018-07-04T17:27:15.214Z,101047.05
2018-07-04T17:29:53.862Z,101054.66
2018-07-04T17:32:32.478Z,101049.80
2018-07-04T17:35:11.021Z,101042.74
2018-07-04T17:37:49.520Z,101040.05
2018-07-04T17:40:28.073Z,101040.13
2018-07-04T17:43:06.613Z,101038.89
2018-07-04T17:45:45.072Z,101043.05
2018-07-04T17:48:23.709Z,101036.45
2018-07-04T17:51:02.231Z,101034.71
2018-07-04T17:53:40.732Z,101041.80
2018-07-04T17:56:19.209Z,101042.97
2018-07-04T17:58:57.756Z,101045.92
2018-07-04T18:01:36.407Z,101042.80
2018-07-04T18:04:15.164Z,101048.00
2018-07-04T18:06:53.743Z,101040.15
2018-07-04T18:09:32.271Z,101039.56
2018-07-04T18:12:10.956Z,101040.39
2018-07-04T18:14:49.368Z,101041.52
2018-07-04T18:17:27.846Z,101044.27
2018-07-04T18:20:06.402Z,101037.86
2018-07-04T18:22:44.881Z,101041.29
2018-07-04T18:25:23.466Z,101046.67
2018-07-04T18:28:01.965Z,101044.31
2018-07-04T18:30:40.480Z,101049.08
2018-07-04T18:33:18.993Z,101045.76
2018-07-04T18:35:57.618Z,101048.61
2018-07-04T18:38:36.264Z,101051.20
2018-07-04T18:41:14.686Z,101051.89
2018-07-04T18:43:53.089Z,101049.98
2018-07-04T18:46:31.521Z,101052.47
2018-07-04T18:49:10.261Z,101056.77
2018-07-04T18:51:48.760Z,101052.55
2018-07-04T18:54:27.380Z,101050.45
2018-07-04T18:57:05.966Z,101056.20
2018-07-04T18:59:44.313Z,101054.88
2018-07-04T19:02:22.767Z,101058.30
2018-07-04T19:05:01.422Z,101058.70
2018-07-04T19:07:40.069Z,101060.40
2018-07-04T19:10:18.621Z,101057.13
2018-07-04T19:12:57.113Z,101054.45
2018-07-04T19:15:35.692Z,101052.23
2018-07-04T19:18:14.089Z,101051.42
2018-07-04T19:20:52.705Z,101050.54
2018-07-04T19:23:31.404Z,101050.48
2018-07-04T19:26:09.914Z,101050.67
2018-07-04T19:28:48.468Z,101053.95
2018-07-04T19:31:26.957Z,101053.06
2018-07-04T19:34:05.355Z,101046.72
2018-07-04T19:36:43.732Z,101046.63
2018-07-04T19:39:22.128Z,101049.22
2018-07-04T19:42:00.737Z,101050.70
2018-07-04T19:44:39.148Z,101046.20
2018-07-04T19:47:17.617Z,101047.98
2018-07-04T19:49:56.041Z,101039.70
2018-07-04T19:52:34.669Z,101043.44
2018-07-04T19:55:13.092Z,101045.36
2018-07-04T19:57:51.590Z,101036.77
2018-07-04T20:00:30.136Z,101043.63
2018-07-04T20:03:08.669Z,101041.84
2018-07-04T20:05:47.164Z,101031.30
2018-07-04T20:08:25.843Z,101038.69
2018-07-04T20:11:04.308Z,101037.79
2018-07-04T20:13:42.833Z,101043.53
2018-07-04T20:16:21.623Z,101043.27
2018-07-04T20:19:00.180Z,101050.75
2018-07-04T20:21:38.739Z,101046.55
2018-07-04T20:24:17.265Z,101043.76
2018-07-04T20:26:55.897Z,101046.63
2018-07-04T20:29:34.396Z,101051.30
2018-07-04T20:32:12.976Z,101050.80
2018-07-04T20:34:51.485Z,101054.30
2018-07-04T20:37:30.023Z,101051.98
2018-07-04T20:40:08.546Z,101057.41
2018-07-04T20:42:47.087Z,101057.80
2018-07-04T20:45:25.593Z,101051.48
2018-07-04T20:48:04.105Z,101048.11
2018-07-04T20:50:42.592Z,101051.16
2018-07-04T20:53:20.904Z,101050.26
2018-07-04T20:55:59.329Z,101046.12
2018-07-04T20:58:37.947Z,101044.92
2018-07-04T21:01:16.336Z,101040.15
2018-07-04T21:03:54.837Z,101040.08
2018-07-04T21:06:33.449Z,101038.50
2018-07-04T21:09:11.893Z,101038.95
2018-07-04T21:11:50.737Z,101045.27
2018-07-04T21:14:29.237Z,101050.11
2018-07-04T21:17:07.773Z,101042.84
2018-07-04T21:19:46.312Z,101040.59
2018-07-04T21:22:24.915Z,101046.11
2018-07-04T21:25:03.521Z,101054.25
2018-07-04T21:27:42.046Z,101055.78
2018-07-04T21:30:20.581Z,101058.13
2018-07-04T21:32:59.220Z,101055.80
2018-07-04T21:35:37.694Z,101062.22
2018-07-04T21:38:16.241Z,101058.88
2018-07-04T21:40:54.648Z,101057.99
2018-07-04T21:43:33.230Z,101058.80
2018-07-04T21:46:11.921Z,101061.28
2018-07-04T21:48:50.404Z,101055.86
2018-07-04T21:51:28.937Z,101061.94
2018-07-04T21:54:07.422Z,101062.59
2018-07-04T21:56:45.931Z,101064.80
2018-07-04T21:59:24.389Z,101062.59
2018-07-04T22:02:03.016Z,101068.05
2018-07-04T22:04:41.689Z,101068.41
2018-07-04T22:07:20.257Z,101063.59
2018-07-04T22:09:58.692Z,101062.00
2018-07-04T22:12:37.196Z,101067.14
2018-07-04T22:15:15.776Z,101062.66
2018-07-04T22:17:54.321Z,101057.19
2018-07-04T22:20:32.869Z,101062.64
2018-07-04T22:23:11.452Z,101061.70
2018-07-04T22:25:49.857Z,101069.83
2018-07-04T22:28:28.408Z,101062.50
2018-07-04T22:31:06.892Z,101060.36
2018-07-04T22:33:45.401Z,101059.61
2018-07-04T22:36:23.904Z,101065.25
2018-07-04T22:39:03.918Z,101055.02
2018-07-04T22:41:42.478Z,101052.80
2018-07-04T22:44:21.069Z,101046.02
2018-07-04T22:46:59.611Z,101041.58
2018-07-04T22:49:38.171Z,101044.88
2018-07-04T22:52:16.676Z,101042.73
2018-07-04T22:54:55.127Z,101041.40
2018-07-04T22:57:33.557Z,101041.63
2018-07-04T23:00:12.017Z,101044.63
2018-07-04T23:02:50.558Z,101045.56
2018-07-04T23:05:29.049Z,101052.35
2018-07-04T23:08:07.468Z,101046.08
2018-07-04T23:10:45.932Z,101042.91
2018-07-04T23:13:24.380Z,101047.28
2018-07-04T23:16:02.855Z,101038.23
2018-07-04T23:18:41.440Z,101028.32
2018-07-04T23:21:20.050Z,101038.41
2018-07-04T23:23:58.620Z,101039.22
2018-07-04T23:26:37.183Z,101037.84
2018-07-04T23:29:15.737Z,101034.80
2018-07-04T23:31:54.317Z,101034.53
2018-07-04T23:34:32.998Z,101030.27
2018-07-04T23:37:11.697Z,101029.03
2018-07-04T23:39:50.200Z,101022.69
2018-07-04T23:42:28.720Z,101024.78
2018-07-04T23:45:07.256Z,101031.12
2018-07-04T23:47:45.901Z,101036.70
2018-07-04T23:50:24.632Z,101037.70
2018-07-04T23:53:03.176Z,101041.25
2018-07-04T23:55:41.743Z,101039.05
2018-07-04T23:58:20.246Z,101031.56
